Time;durP1;ratioP1;P1;durP2;ratioP2;P2;SDS_P1;SDS_P2;PMS_P1;PMS_P2;Temp;Humidity;BMP_temperature;BMP_pressure;BME280_temperature;BME280_humidity;BME280_pressure;Samples;Min_cycle;Max_cycle;Signal;HPM_P1;HPM_P2
2022/07/31 00:00:15;;;;;;;2.72;0.90;;;;;;;22.22;60.70;101413.16;5080872;28;20045;-71
2022/07/31 00:02:43;;;;;;;8.70;1.30;;;;;;;22.22;60.63;101419.56;5085068;28;20049;-70
2022/07/31 00:05:10;;;;;;;5.70;1.02;;;;;;;22.03;60.96;101411.22;5073129;28;20049;-70
2022/07/31 00:07:38;;;;;;;3.15;1.02;;;;;;;21.81;61.89;101412.00;5078326;28;20048;-70
2022/07/31 00:10:06;;;;;;;5.80;0.80;;;;;;;22.10;61.30;101416.97;5078760;28;20052;-72
2022/07/31 00:12:36;;;;;;;3.05;1.23;;;;;;;22.21;60.91;101408.72;5057730;28;20048;-70
2022/07/31 00:15:06;;;;;;;3.90;1.08;;;;;;;22.24;60.46;101403.19;5059545;28;20056;-71
2022/07/31 00:17:33;;;;;;;6.15;1.13;;;;;;;21.88;61.93;101406.53;5083093;28;20422;-70
2022/07/31 00:20:00;;;;;;;3.22;1.00;;;;;;;21.69;62.70;101403.72;5092764;28;20048;-71
2022/07/31 00:22:28;;;;;;;1.67;0.90;;;;;;;21.93;62.05;101399.81;5076910;28;20059;-71
2022/07/31 00:24:56;;;;;;;4.47;0.95;;;;;;;21.87;61.95;101404.09;5086632;28;20056;-71
2022/07/31 00:27:23;;;;;;;3.55;1.13;;;;;;;22.12;61.02;101402.56;5088982;28;20080;-71
2022/07/31 00:29:50;;;;;;;3.13;1.00;;;;;;;21.76;62.29;101395.44;5088914;28;20052;-71
2022/07/31 00:32:18;;;;;;;2.47;0.93;;;;;;;21.95;61.92;101406.66;5093578;28;20055;-70
2022/07/31 00:34:45;;;;;;;4.50;0.88;;;;;;;22.26;60.98;101400.00;5094097;28;20063;-71
2022/07/31 00:37:12;;;;;;;1.58;0.90;;;;;;;22.38;60.51;101404.59;5075011;28;20045;-69
2022/07/31 00:39:42;;;;;;;2.15;1.10;;;;;;;22.10;60.93;101404.91;5070249;28;20504;-69
2022/07/31 00:42:17;;;;;;;3.20;1.00;;;;;;;21.90;62.03;101401.34;5080495;28;20052;-69
2022/07/31 00:44:45;;;;;;;2.83;1.10;;;;;;;22.01;61.64;101410.78;5071576;28;20048;-70
2022/07/31 00:47:14;;;;;;;1.63;0.93;;;;;;;22.02;61.83;101408.81;5085871;28;20403;-69
2022/07/31 00:49:42;;;;;;;2.03;0.90;;;;;;;22.20;61.27;101405.09;5077707;28;20057;-71
2022/07/31 00:52:11;;;;;;;2.78;1.00;;;;;;;22.16;61.61;101409.03;5075585;28;20047;-68
2022/07/31 00:54:38;;;;;;;1.77;1.27;;;;;;;22.09;61.67;101404.09;5093510;28;20048;-70
2022/07/31 00:57:06;;;;;;;3.35;1.27;;;;;;;22.27;61.37;101402.41;5074242;28;20048;-71
2022/07/31 00:59:34;;;;;;;4.03;1.30;;;;;;;22.24;60.98;101408.78;5072158;28;20059;-70
2022/07/31 01:02:01;;;;;;;4.22;1.38;;;;;;;22.18;61.13;101406.66;5072958;28;20052;-70
2022/07/31 01:04:29;;;;;;;5.30;0.90;;;;;;;22.02;61.97;101403.97;5091662;28;20059;-71
2022/07/31 01:06:59;;;;;;;4.53;1.10;;;;;;;22.14;61.76;101415.00;5060603;28;20412;-71
2022/07/31 01:09:28;;;;;;;2.75;0.90;;;;;;;22.01;62.50;101415.56;5093503;28;20059;-68
2022/07/31 01:12:06;;;;;;;2.03;1.00;;;;;;;21.82;62.94;101415.63;5076406;28;20052;-68
2022/07/31 01:14:40;;;;;;;2.72;0.85;;;;;;;21.75;62.98;101412.66;5081463;28;20045;-69
2022/07/31 01:17:08;;;;;;;1.77;0.90;;;;;;;21.54;63.88;101421.47;5055035;28;20055;-69
2022/07/31 01:19:40;;;;;;;2.08;1.02;;;;;;;21.54;63.86;101424.28;5061246;28;20514;-69
2022/07/31 01:22:19;;;;;;;4.10;0.90;;;;;;;21.50;64.06;101417.78;5076025;28;20055;-69
2022/07/31 01:25:26;;;;;;;3.90;1.08;;;;;;;21.32;65.18;101418.59;5057445;28;20048;-69
2022/07/31 01:28:50;;;;;;;3.15;1.00;;;;;;;21.72;63.57;101419.84;5073795;28;20059;-70
2022/07/31 01:31:26;;;;;;;3.90;1.20;;;;;;;21.74;63.34;101414.66;5072274;28;20698;-72
2022/07/31 01:34:07;;;;;;;3.67;1.27;;;;;;;21.32;65.27;101421.41;5071843;28;20056;-71
2022/07/31 01:36:36;;;;;;;3.80;0.95;;;;;;;20.87;66.95;101419.22;5060936;28;20051;-70
2022/07/31 01:39:04;;;;;;;5.55;1.17;;;;;;;20.87;67.22;101413.59;5077034;28;20066;-70
2022/07/31 01:41:55;;;;;;;3.55;0.90;;;;;;;20.86;66.99;101415.59;5072485;28;20055;-70
2022/07/31 01:44:24;;;;;;;1.65;0.80;;;;;;;20.81;67.50;101417.84;5081336;28;20067;-70
2022/07/31 01:46:52;;;;;;;1.58;0.88;;;;;;;20.73;68.14;101425.28;5047449;28;20044;-71
2022/07/31 01:49:21;;;;;;;2.58;0.90;;;;;;;20.96;67.50;101422.59;5049622;28;20411;-71
2022/07/31 01:51:49;;;;;;;2.35;0.98;;;;;;;20.95;67.17;101416.19;5060634;28;20067;-71
2022/07/31 01:54:19;;;;;;;4.68;1.10;;;;;;;20.73;68.15;101419.69;5072392;28;20421;-71
2022/07/31 01:56:48;;;;;;;2.65;0.90;;;;;;;20.78;67.86;101416.59;5036713;28;20511;-70
2022/07/31 01:59:18;;;;;;;4.40;0.90;;;;;;;20.69;68.57;101423.59;5076225;28;20062;-71
2022/07/31 02:02:07;;;;;;;4.80;0.95;;;;;;;20.82;68.21;101422.28;5076211;28;20051;-72
2022/07/31 02:04:37;;;;;;;2.75;1.00;;;;;;;20.83;68.09;101418.31;5064781;28;20048;-70
2022/07/31 02:07:07;;;;;;;3.00;1.08;;;;;;;20.95;67.74;101419.00;5072513;28;20049;-71
2022/07/31 02:09:35;;;;;;;3.73;1.00;;;;;;;20.76;68.34;101418.97;5062779;28;20510;-71
2022/07/31 02:12:03;;;;;;;2.35;0.70;;;;;;;21.06;67.29;101410.88;5061588;28;20045;-71
2022/07/31 02:14:37;;;;;;;2.15;1.00;;;;;;;21.48;66.26;101416.53;5076115;28;20052;-69
2022/07/31 02:17:05;;;;;;;2.47;1.08;;;;;;;21.27;66.32;101416.91;5078725;28;20055;-71
2022/07/31 02:19:53;;;;;;;4.25;1.27;;;;;;;21.05;67.32;101424.06;5086693;28;20052;-69
2022/07/31 02:22:28;;;;;;;2.00;0.88;;;;;;;21.28;66.49;101424.13;5063448;28;20048;-70
2022/07/31 02:24:55;;;;;;;5.38;1.13;;;;;;;21.07;67.26;101423.69;5056215;28;20053;-69
2022/07/31 02:27:23;;;;;;;2.03;1.05;;;;;;;20.78;68.83;101421.41;5088654;28;20041;-69
2022/07/31 02:30:15;;;;;;;3.10;1.40;;;;;;;20.65;69.21;101420.69;5089506;28;20066;-69
2022/07/31 02:32:45;;;;;;;2.17;1.17;;;;;;;20.78;69.14;101415.78;5059630;28;20059;-68
2022/07/31 02:35:12;;;;;;;;;;;;;;;20.68;69.57;101427.53;5092262;28;20044;-68
2022/07/31 02:37:41;;;;;;;4.90;1.30;;;;;;;20.73;69.52;101424.47;5070552;28;19920;-67
2022/07/31 02:40:10;;;;;;;4.47;1.33;;;;;;;20.68;69.96;101424.75;5062080;28;20061;-69
2022/07/31 02:42:41;;;;;;;3.72;1.17;;;;;;;20.64;69.94;101426.66;5079017;28;20048;-68
2022/07/31 02:45:09;;;;;;;4.60;1.23;;;;;;;20.35;71.32;101421.53;5081575;28;20060;-69
2022/07/31 02:47:38;;;;;;;5.22;1.42;;;;;;;20.22;72.44;101408.81;5079382;28;20052;-68
2022/07/31 02:50:10;;;;;;;2.72;1.10;;;;;;;20.08;73.40;101412.84;5091298;28;20053;-69
2022/07/31 02:52:37;;;;;;;5.57;1.20;;;;;;;20.16;72.62;101411.06;5084839;28;20064;-70
2022/07/31 02:55:05;;;;;;;5.47;1.45;;;;;;;20.06;73.53;101409.63;5086893;28;20053;-69
2022/07/31 02:57:33;;;;;;;1.95;1.08;;;;;;;20.12;73.40;101410.13;5067733;28;20071;-69
2022/07/31 03:00:21;;;;;;;3.92;1.38;;;;;;;20.17;73.40;101421.13;5077156;28;20052;-69
2022/07/31 03:02:56;;;;;;;5.28;1.20;;;;;;;20.37;72.24;101421.97;5076867;28;20041;-69
2022/07/31 03:05:25;;;;;;;3.53;1.25;;;;;;;20.10;73.24;101418.91;5058872;28;20156;-68
2022/07/31 03:07:52;;;;;;;3.55;1.50;;;;;;;19.92;74.32;101416.81;5057525;28;20052;-68
2022/07/31 03:10:21;;;;;;;2.50;1.30;;;;;;;20.13;73.65;101408.97;5075269;28;20391;-69
2022/07/31 03:12:59;;;;;;;2.85;1.30;;;;;;;19.95;74.03;101411.31;5058269;28;20083;-68
2022/07/31 03:15:28;;;;;;;4.30;1.65;;;;;;;20.14;73.95;101402.19;5060241;28;20056;-69
2022/07/31 03:17:55;;;;;;;4.15;1.60;;;;;;;20.33;73.27;101396.72;5084148;28;20128;-69
2022/07/31 03:20:33;;;;;;;3.22;1.30;;;;;;;20.27;72.82;101402.97;5074928;28;20045;-68
2022/07/31 03:23:01;;;;;;;3.65;1.40;;;;;;;19.88;74.65;101415.91;5088121;28;20452;-69
2022/07/31 03:25:31;;;;;;;4.30;1.50;;;;;;;19.79;74.90;101416.06;5064319;28;20052;-68
2022/07/31 03:27:59;;;;;;;4.25;1.80;;;;;;;19.56;76.59;101409.44;5069883;28;20586;-68
2022/07/31 03:30:27;;;;;;;2.90;1.67;;;;;;;19.63;76.54;101394.88;5062445;28;20048;-68
2022/07/31 03:32:56;;;;;;;3.65;1.85;;;;;;;19.64;76.12;101400.09;5065045;28;20052;-69
2022/07/31 03:35:24;;;;;;;3.60;1.63;;;;;;;19.66;76.02;101408.94;5045766;28;20088;-69
2022/07/31 03:37:51;;;;;;;5.43;1.92;;;;;;;19.67;76.45;101402.16;5073853;28;20048;-69
2022/07/31 03:40:19;;;;;;;4.88;1.90;;;;;;;19.82;75.46;101403.38;5065370;28;20048;-69
2022/07/31 03:42:49;;;;;;;3.25;1.85;;;;;;;19.95;75.27;101385.31;5038440;28;20060;-69
2022/07/31 03:45:16;;;;;;;4.82;2.22;;;;;;;20.21;73.73;101385.63;5065722;28;20054;-69
2022/07/31 03:47:44;;;;;;;4.35;2.42;;;;;;;20.41;73.38;101383.72;5093387;28;20051;-69
2022/07/31 03:50:12;;;;;;;4.85;2.72;;;;;;;20.46;72.51;101383.44;5091784;28;20076;-68
2022/07/31 03:52:39;;;;;;;3.97;2.30;;;;;;;20.62;72.00;101373.03;5092856;28;20048;-69
2022/07/31 03:55:07;;;;;;;6.70;2.63;;;;;;;20.27;73.34;101383.38;5069826;28;20048;-70
2022/07/31 03:57:36;;;;;;;5.55;3.38;;;;;;;20.36;73.55;101403.59;5077365;28;20049;-69
2022/07/31 04:00:05;;;;;;;5.27;4.10;;;;;;;20.03;74.27;101404.72;5074062;28;20055;-68
2022/07/31 04:02:43;;;;;;;5.63;4.05;;;;;;;20.09;75.11;101399.69;5075607;28;20178;-69
2022/07/31 04:05:31;;;;;;;6.07;4.40;;;;;;;19.96;75.41;101387.75;5074435;28;20049;-69
2022/07/31 04:07:58;;;;;;;7.00;4.50;;;;;;;20.15;74.66;101396.25;5095694;28;20052;-69
2022/07/31 04:10:26;;;;;;;6.95;4.50;;;;;;;19.98;74.94;101402.19;5093756;28;20056;-69
2022/07/31 04:12:53;;;;;;;8.23;5.82;;;;;;;19.95;74.92;101394.53;5074513;28;20052;-68
2022/07/31 04:15:21;;;;;;;8.40;6.15;;;;;;;19.85;75.57;101394.25;5075951;28;20055;-69
2022/07/31 04:17:48;;;;;;;9.82;5.88;;;;;;;19.77;75.80;101387.66;5089580;28;20676;-68
2022/07/31 04:20:21;;;;;;;7.38;5.57;;;;;;;20.09;74.66;101383.72;5074153;28;20044;-68
2022/07/31 04:22:48;;;;;;;8.02;5.68;;;;;;;20.65;73.05;101383.47;5075178;28;20053;-68
2022/07/31 04:25:33;;;;;;;8.68;6.32;;;;;;;20.70;72.01;101386.81;5059919;28;20060;-69
2022/07/31 04:28:08;;;;;;;8.43;6.20;;;;;;;20.62;71.83;101389.81;5058570;28;20048;-69
2022/07/31 04:30:37;;;;;;;9.68;5.68;;;;;;;20.47;71.85;101391.47;5090836;28;20491;-69
2022/07/31 04:33:04;;;;;;;6.43;4.72;;;;;;;20.31;73.04;101398.28;5073838;28;20534;-68
2022/07/31 04:35:31;;;;;;;6.60;4.60;;;;;;;20.63;71.91;101397.84;5073346;28;20056;-68
2022/07/31 04:37:59;;;;;;;7.07;4.32;;;;;;;20.53;72.07;101408.78;5068661;28;20055;-68
2022/07/31 04:40:29;;;;;;;7.20;4.20;;;;;;;20.26;73.49;101404.94;5046302;28;20059;-69
2022/07/31 04:42:57;;;;;;;7.53;4.07;;;;;;;20.53;72.39;101403.19;5074860;28;20495;-68
2022/07/31 04:45:26;;;;;;;6.75;4.28;;;;;;;20.11;73.83;101397.34;5073950;28;20064;-68
2022/07/31 04:47:54;;;;;;;5.72;3.83;;;;;;;20.19;74.07;101390.75;5056860;28;20063;-69
2022/07/31 04:50:21;;;;;;;8.05;3.97;;;;;;;20.48;73.15;101387.50;5093420;28;20051;-67
2022/07/31 04:52:57;;;;;;;5.70;3.78;;;;;;;20.80;71.75;101396.66;5094915;28;20051;-68
2022/07/31 04:55:27;;;;;;;6.38;3.85;;;;;;;20.87;70.99;101386.41;5087923;28;20379;-68
2022/07/31 04:57:54;;;;;;;6.35;3.65;;;;;;;20.95;69.91;101396.59;5045146;28;20063;-68
2022/07/31 05:00:22;;;;;;;5.40;3.60;;;;;;;20.97;70.48;101396.22;5081426;28;20048;-69
2022/07/31 05:02:50;;;;;;;7.22;3.85;;;;;;;20.63;71.53;101397.03;5079550;28;20059;-69
2022/07/31 05:05:17;;;;;;;7.15;4.30;;;;;;;20.87;71.58;101400.41;5079826;28;20063;-68
2022/07/31 05:07:46;;;;;;;6.18;3.90;;;;;;;21.16;69.86;101404.66;5080221;28;20068;-69
2022/07/31 05:13:11;;;;;;;6.30;3.72;;;;;;;21.46;68.40;101402.09;5065547;28;20055;-70
2022/07/31 05:15:42;;;;;;;6.63;3.40;;;;;;;21.18;69.21;101397.50;5081998;28;20060;-70
2022/07/31 05:18:11;;;;;;;4.97;2.88;;;;;;;21.04;69.51;101390.81;5078059;28;20039;-68
2022/07/31 05:20:57;;;;;;;5.20;2.90;;;;;;;21.05;70.05;101387.63;5051059;28;20107;-68
2022/07/31 05:23:29;;;;;;;6.45;2.95;;;;;;;21.03;69.12;101401.19;5072845;28;20237;-68
2022/07/31 05:26:17;;;;;;;5.63;2.85;;;;;;;20.87;70.38;101399.59;5073166;28;20064;-68
2022/07/31 05:28:45;;;;;;;5.50;2.95;;;;;;;20.69;71.33;101402.00;5055566;28;20044;-66
2022/07/31 05:31:13;;;;;;;5.72;2.80;;;;;;;20.62;72.16;101398.22;5053001;28;20845;-66
2022/07/31 05:33:40;;;;;;;6.00;3.08;;;;;;;20.71;72.06;101396.81;5035920;28;20044;-68
2022/07/31 05:36:08;;;;;;;7.30;3.20;;;;;;;20.37;72.64;101394.81;5072544;28;20411;-69
2022/07/31 05:38:35;;;;;;;4.55;2.70;;;;;;;20.50;72.82;101393.56;5090233;28;20049;-68
2022/07/31 05:41:21;;;;;;;4.75;2.50;;;;;;;20.55;72.50;101392.44;5072775;28;20049;-68
2022/07/31 05:44:20;;;;;;;4.13;2.65;;;;;;;20.64;71.92;101393.06;5047525;28;20059;-68
2022/07/31 05:46:49;;;;;;;6.88;3.17;;;;;;;20.15;73.60;101401.84;5055018;28;20056;-68
2022/07/31 05:49:18;;;;;;;5.00;2.75;;;;;;;20.44;72.64;101400.59;5073132;28;20033;-68
2022/07/31 05:51:53;;;;;;;4.50;2.90;;;;;;;20.66;71.45;101397.09;5081980;28;20051;-70
2022/07/31 05:54:21;;;;;;;5.88;3.20;;;;;;;20.40;72.12;101410.09;5048079;28;20048;-72
2022/07/31 05:57:07;;;;;;;6.63;2.75;;;;;;;20.23;72.35;101410.44;5062624;28;20056;-67
2022/07/31 05:59:40;;;;;;;5.63;2.80;;;;;;;20.10;73.30;101416.09;5060528;28;20051;-67
2022/07/31 06:02:07;;;;;;;6.30;2.80;;;;;;;20.31;72.92;101410.25;5079082;28;20524;-68
2022/07/31 06:05:04;;;;;;;4.18;2.70;;;;;;;20.43;72.44;101414.94;5053740;28;20052;-68
2022/07/31 06:07:33;;;;;;;5.55;2.63;;;;;;;20.48;72.50;101414.66;5079516;28;20063;-68
2022/07/31 06:10:02;;;;;;;5.93;2.70;;;;;;;20.36;72.67;101409.19;5097375;28;20066;-67
2022/07/31 06:12:29;;;;;;;5.43;2.92;;;;;;;20.68;71.66;101399.53;5065864;28;20056;-71
2022/07/31 06:14:59;;;;;;;4.82;2.60;;;;;;;20.68;70.82;101396.75;5089354;28;20059;-70
2022/07/31 06:17:33;;;;;;;5.55;2.78;;;;;;;20.81;70.54;101404.69;5080271;28;20052;-71
2022/07/31 06:20:20;;;;;;;5.65;2.78;;;;;;;20.68;70.53;101399.53;5078591;28;20044;-71
2022/07/31 06:22:48;;;;;;;6.85;2.88;;;;;;;20.93;70.09;101398.13;5040985;28;20075;-70
2022/07/31 06:25:16;;;;;;;4.75;2.90;;;;;;;20.91;69.86;101406.91;5062108;28;20052;-70
2022/07/31 06:27:43;;;;;;;7.10;3.25;;;;;;;20.64;70.19;101415.47;5090820;28;20036;-70
2022/07/31 06:30:25;;;;;;;6.45;3.00;;;;;;;20.59;70.98;101412.94;5084700;28;20045;-71
2022/07/31 06:32:53;;;;;;;5.55;3.28;;;;;;;20.55;71.52;101406.44;5076663;28;20052;-71
2022/07/31 06:35:20;;;;;;;4.97;2.97;;;;;;;20.55;71.00;101414.84;5075304;28;20060;-71
2022/07/31 06:38:06;;;;;;;5.65;2.80;;;;;;;20.74;70.30;101418.50;5073286;28;20045;-71
2022/07/31 06:40:53;;;;;;;4.93;3.20;;;;;;;21.02;68.18;101415.56;5077390;28;20056;-71
2022/07/31 06:43:31;;;;;;;4.03;2.75;;;;;;;21.21;68.85;101413.59;5082072;28;20059;-71
2022/07/31 06:46:17;;;;;;;5.40;3.00;;;;;;;21.26;67.25;101420.88;5077284;28;20055;-71
2022/07/31 06:49:03;;;;;;;6.47;3.40;;;;;;;21.27;67.08;101414.91;5077171;28;20071;-72
2022/07/31 06:51:35;;;;;;;4.90;3.17;;;;;;;21.50;66.09;101409.38;5059642;28;20052;-71
2022/07/31 06:54:05;;;;;;;5.57;3.13;;;;;;;21.76;65.04;101411.50;5075121;28;20526;-70
2022/07/31 06:56:33;;;;;;;;;;;;;;;21.09;67.08;101415.72;5059572;28;20071;-70
2022/07/31 06:59:01;;;;;;;5.72;3.28;;;;;;;21.40;66.49;101421.19;5075595;28;19920;-70
2022/07/31 07:01:28;;;;;;;6.55;3.42;;;;;;;20.96;67.94;101417.81;5075579;28;20063;-70
2022/07/31 07:03:56;;;;;;;5.47;3.35;;;;;;;21.20;66.94;101434.38;5056710;28;20052;-70
2022/07/31 07:06:24;;;;;;;5.10;3.00;;;;;;;20.61;68.71;101427.38;5057881;28;20154;-71
2022/07/31 07:08:52;;;;;;;6.40;3.00;;;;;;;20.79;68.47;101423.81;5075268;28;20056;-71
2022/07/31 07:11:28;;;;;;;5.75;2.80;;;;;;;21.01;68.09;101422.34;5059427;28;20048;-72
2022/07/31 07:13:57;;;;;;;8.27;2.80;;;;;;;21.32;66.67;101425.03;5043036;28;20052;-72
2022/07/31 07:16:24;;;;;;;4.55;2.90;;;;;;;21.40;65.99;101418.38;5075467;28;20049;-72
2022/07/31 07:18:52;;;;;;;6.45;2.90;;;;;;;21.54;64.88;101429.88;5081287;28;20048;-71
2022/07/31 07:21:22;;;;;;;6.05;2.95;;;;;;;21.26;65.47;101432.09;5066662;28;20048;-71
2022/07/31 07:23:55;;;;;;;4.55;2.60;;;;;;;21.37;65.03;101435.94;5073666;28;20056;-70
2022/07/31 07:26:46;;;;;;;7.95;3.47;;;;;;;21.33;65.63;101432.25;5061708;28;20423;-71
2022/07/31 07:29:14;;;;;;;6.03;3.30;;;;;;;21.58;64.20;101436.38;5074955;28;20060;-72
2022/07/31 07:31:44;;;;;;;6.45;3.20;;;;;;;21.54;64.85;101449.50;5074967;28;20047;-72
2022/07/31 07:34:12;;;;;;;4.78;3.20;;;;;;;21.73;63.43;101437.44;5058393;28;20060;-70
2022/07/31 07:36:40;;;;;;;7.00;3.72;;;;;;;21.81;62.65;101433.66;5074997;28;20055;-71
2022/07/31 07:39:14;;;;;;;7.15;3.65;;;;;;;21.45;64.33;101446.13;5074854;28;20052;-71
2022/07/31 07:41:42;;;;;;;10.27;3.70;;;;;;;21.24;64.88;101438.06;5066418;28;20057;-72
2022/07/31 07:44:10;;;;;;;6.38;3.42;;;;;;;21.22;65.71;101436.81;5074538;28;20538;-76
2022/07/31 07:46:37;;;;;;;7.90;3.65;;;;;;;21.66;64.54;101438.13;5054637;28;20068;-76
2022/07/31 07:49:06;;;;;;;5.22;2.97;;;;;;;22.36;60.76;101433.03;5073454;28;20518;-70
2022/07/31 07:51:34;;;;;;;5.72;2.92;;;;;;;21.81;62.04;101444.88;5077483;28;20063;-70
2022/07/31 07:54:21;;;;;;;6.82;3.40;;;;;;;20.67;67.09;101451.94;5074592;28;20558;-72
2022/07/31 07:57:04;;;;;;;5.00;3.38;;;;;;;21.05;65.90;101431.63;5075241;28;20072;-64
2022/07/31 08:00:08;;;;;;;6.72;3.50;;;;;;;22.16;61.94;101440.72;5061243;28;20154;-71
2022/07/31 08:02:44;;;;;;;6.10;3.28;;;;;;;22.64;60.30;101441.13;5072684;28;20051;-73
2022/07/31 08:05:32;;;;;;;;;;;;;;;22.51;60.33;101437.69;5069561;28;20048;-72
2022/07/31 08:08:00;;;;;;;5.82;3.22;;;;;;;22.62;60.78;101441.50;5057785;28;19924;-70
2022/07/31 08:10:45;;;;;;;7.85;3.38;;;;;;;22.78;59.16;101442.19;5076548;28;20053;-70
2022/07/31 08:13:35;;;;;;;6.45;3.45;;;;;;;22.23;60.31;101451.25;5072359;28;20052;-70
2022/07/31 08:16:09;;;;;;;9.60;3.25;;;;;;;21.75;62.26;101446.31;5067731;28;20048;-71
2022/07/31 08:18:42;;;;;;;7.03;3.58;;;;;;;22.32;61.72;101451.81;5081872;28;20052;-70
2022/07/31 08:21:09;;;;;;;6.18;3.70;;;;;;;22.21;61.04;101451.63;5079683;28;20539;-72
2022/07/31 08:23:37;;;;;;;6.22;3.17;;;;;;;22.12;61.37;101444.66;5074667;28;20048;-70
2022/07/31 08:26:07;;;;;;;6.15;3.92;;;;;;;21.90;61.93;101451.03;5070783;28;20065;-70
2022/07/31 08:28:35;;;;;;;6.72;3.20;;;;;;;22.02;61.56;101448.09;5077718;28;20041;-70
2022/07/31 08:31:03;;;;;;;4.93;3.38;;;;;;;22.12;61.40;101441.84;5057537;28;20056;-71
2022/07/31 08:33:34;;;;;;;7.68;3.60;;;;;;;22.35;60.73;101435.03;5068832;28;20525;-70
2022/07/31 08:36:03;;;;;;;7.32;3.67;;;;;;;22.29;61.30;101442.16;5087542;28;20052;-71
2022/07/31 08:38:30;;;;;;;6.63;3.92;;;;;;;22.64;60.39;101438.31;5082148;28;20053;-72
2022/07/31 08:41:33;;;;;;;5.20;3.17;;;;;;;22.37;60.74;101431.03;5067846;28;20060;-71
2022/07/31 08:44:01;;;;;;;6.38;3.60;;;;;;;22.51;61.12;101436.91;5074909;28;20059;-70
2022/07/31 08:46:36;;;;;;;6.60;3.88;;;;;;;22.67;60.20;101431.94;5071558;28;20078;-70
2022/07/31 08:49:04;;;;;;;5.65;3.70;;;;;;;22.48;59.92;101434.81;5074121;28;20055;-73
2022/07/31 08:51:37;;;;;;;6.68;4.05;;;;;;;22.02;61.92;101440.44;5079763;28;20067;-69
2022/07/31 08:54:22;;;;;;;5.80;3.57;;;;;;;21.91;62.00;101441.44;5071266;28;20041;-72
2022/07/31 08:56:52;;;;;;;6.18;3.70;;;;;;;22.00;62.51;101433.59;5075440;28;20333;-71
2022/07/31 08:59:20;;;;;;;;;;;;;;;22.33;61.25;101436.59;5071712;28;20044;-70
2022/07/31 09:01:48;;;;;;;6.50;3.50;;;;;;;22.72;60.66;101431.63;5068868;28;19920;-71
2022/07/31 09:04:15;;;;;;;7.15;3.72;;;;;;;22.86;59.13;101434.63;5070011;28;20044;-69
2022/07/31 09:06:44;;;;;;;7.43;3.58;;;;;;;22.92;58.92;101431.16;5052427;28;20067;-69
2022/07/31 09:09:14;;;;;;;7.80;3.60;;;;;;;22.93;59.12;101432.75;5071129;28;20519;-67
2022/07/31 09:11:47;;;;;;;6.75;3.80;;;;;;;23.29;57.79;101429.25;5064229;28;20040;-67
2022/07/31 09:14:34;;;;;;;6.15;3.60;;;;;;;22.96;58.02;101434.00;5080087;28;20398;-67
2022/07/31 09:17:06;;;;;;;9.77;4.10;;;;;;;23.25;57.59;101427.56;5044153;28;20051;-68
2022/07/31 09:19:36;;;;;;;6.75;3.97;;;;;;;22.32;59.83;101421.75;5081068;28;20056;-70
2022/07/31 09:22:29;;;;;;;5.93;4.05;;;;;;;22.57;59.25;101426.97;5072183;28;20057;-71
2022/07/31 09:25:07;;;;;;;7.13;3.83;;;;;;;22.25;60.80;101424.44;5078037;28;20060;-71
2022/07/31 09:27:34;;;;;;;5.55;3.85;;;;;;;21.82;61.97;101422.06;5085993;28;20075;-71
2022/07/31 09:30:03;;;;;;;6.35;4.07;;;;;;;22.21;61.39;101423.56;5070991;28;20052;-72
2022/07/31 09:32:50;;;;;;;7.63;3.63;;;;;;;22.44;60.28;101428.34;5076414;28;20062;-73
2022/07/31 09:35:45;;;;;;;10.35;3.88;;;;;;;22.54;60.47;101422.94;5071981;28;20051;-73
2022/07/31 09:38:14;;;;;;;7.20;4.10;;;;;;;22.92;59.29;101419.91;5077323;28;20056;-72
2022/07/31 09:41:16;;;;;;;8.40;4.30;;;;;;;23.11;58.00;101421.75;5032984;28;20060;-71
2022/07/31 09:44:09;;;;;;;8.38;4.35;;;;;;;22.71;58.84;101435.63;5076266;28;20843;-72
2022/07/31 09:46:44;;;;;;;7.38;3.88;;;;;;;22.54;59.83;101436.13;5074705;28;20053;-73
2022/07/31 09:49:13;;;;;;;6.78;4.15;;;;;;;22.79;58.95;101428.91;5068767;28;20037;-73
2022/07/31 09:51:45;;;;;;;6.25;3.78;;;;;;;22.78;59.23;101432.94;5056266;28;20048;-73
2022/07/31 09:54:23;;;;;;;7.40;3.90;;;;;;;23.04;58.43;101428.09;5077638;28;20565;-73
2022/07/31 09:56:51;;;;;;;6.95;3.78;;;;;;;23.32;56.86;101425.72;5073380;28;20040;-73
2022/07/31 09:59:19;;;;;;;7.13;3.80;;;;;;;23.56;56.63;101426.38;5071103;28;20534;-72
2022/07/31 10:01:48;;;;;;;5.40;3.55;;;;;;;23.39;56.94;101430.59;5069834;28;20064;-74
2022/07/31 10:04:17;;;;;;;7.35;3.80;;;;;;;23.70;56.35;101429.34;5050267;28;20056;-72
2022/07/31 10:06:50;;;;;;;8.57;4.07;;;;;;;23.41;56.94;101425.41;5083090;28;20037;-72
2022/07/31 10:09:19;;;;;;;6.20;3.72;;;;;;;23.01;58.19;101422.44;5078390;28;20058;-72
2022/07/31 10:12:11;;;;;;;6.63;4.07;;;;;;;23.29;57.12;101423.63;5074068;28;20060;-72
2022/07/31 10:14:43;;;;;;;6.50;3.63;;;;;;;23.09;58.16;101424.13;5092785;28;20059;-71
2022/07/31 10:17:13;;;;;;;7.00;4.22;;;;;;;23.62;56.63;101420.03;5074594;28;20056;-73
2022/07/31 10:20:03;;;;;;;11.48;3.78;;;;;;;23.86;55.95;101413.84;5072462;28;20063;-72
2022/07/31 10:22:53;;;;;;;5.55;3.90;;;;;;;24.02;54.64;101411.66;5073239;28;20484;-73
2022/07/31 10:25:29;;;;;;;7.72;3.83;;;;;;;23.76;54.72;101411.75;5071055;28;20048;-73
2022/07/31 10:27:57;;;;;;;8.82;3.83;;;;;;;23.69;55.40;101419.31;5081612;28;20076;-73
2022/07/31 10:30:26;;;;;;;8.52;3.90;;;;;;;23.36;56.06;101417.31;5054742;28;20055;-72
2022/07/31 10:32:58;;;;;;;6.03;4.07;;;;;;;23.26;56.46;101415.13;5069839;28;20057;-71
2022/07/31 10:35:26;;;;;;;8.00;3.80;;;;;;;23.33;56.25;101415.25;5068094;28;20052;-69
2022/07/31 10:38:26;;;;;;;6.20;3.67;;;;;;;22.80;58.39;101410.88;5071906;28;20519;-70
2022/07/31 10:41:43;;;;;;;9.32;4.22;;;;;;;23.00;57.71;101407.56;5075429;28;20044;-68
2022/07/31 10:44:33;;;;;;;6.13;3.70;;;;;;;22.91;58.49;101417.47;5081197;28;20060;-70
2022/07/31 10:47:17;;;;;;;6.95;3.63;;;;;;;22.89;57.54;101406.59;5067715;28;20071;-68
2022/07/31 10:50:05;;;;;;;7.05;3.60;;;;;;;23.01;57.65;101395.13;5045122;28;20056;-70
2022/07/31 10:52:52;;;;;;;5.32;3.70;;;;;;;23.21;56.42;101401.41;5083967;28;20052;-70
2022/07/31 10:55:31;;;;;;;;;;;;;;;23.25;56.96;101403.09;5086963;28;20051;-69
2022/07/31 10:58:18;;;;;;;6.35;3.97;;;;;;;23.07;57.22;101399.22;5065623;28;19921;-69
2022/07/31 11:01:08;;;;;;;5.78;3.30;;;;;;;23.15;57.20;101408.56;5072548;28;20357;-69
2022/07/31 11:03:45;;;;;;;7.00;3.75;;;;;;;23.10;56.96;101403.28;5075320;28;20047;-68
2022/07/31 11:06:20;;;;;;;7.55;3.75;;;;;;;23.42;56.53;101398.88;5088826;28;20053;-69
2022/07/31 11:08:56;;;;;;;6.63;3.60;;;;;;;23.37;56.24;101399.25;5067963;28;20044;-71
2022/07/31 11:11:51;;;;;;;5.10;3.17;;;;;;;23.38;56.44;101392.41;5061340;28;20041;-67
2022/07/31 11:14:38;;;;;;;5.82;3.67;;;;;;;23.63;55.97;101376.63;5072412;28;20052;-74
2022/07/31 11:17:38;;;;;;;8.93;3.53;;;;;;;23.72;54.77;101391.19;5057618;28;20048;-71
2022/07/31 11:20:31;;;;;;;7.22;3.80;;;;;;;23.84;54.97;101385.28;5077151;28;20040;-71
2022/07/31 11:23:04;;;;;;;6.53;3.72;;;;;;;23.60;55.73;101388.66;5090796;28;20059;-72
2022/07/31 11:25:34;;;;;;;6.97;3.67;;;;;;;23.73;55.50;101375.94;5070583;28;20055;-69
2022/07/31 11:28:20;;;;;;;6.30;4.15;;;;;;;24.04;54.20;101385.91;5076734;28;20055;-71
2022/07/31 11:30:51;;;;;;;6.97;3.80;;;;;;;24.01;54.55;101386.69;5072066;28;20056;-69
2022/07/31 11:33:34;;;;;;;7.38;3.75;;;;;;;24.43;53.95;101376.59;5088784;28;20059;-68
2022/07/31 11:36:17;;;;;;;6.22;3.75;;;;;;;24.48;53.13;101381.03;5072339;28;20052;-68
2022/07/31 11:38:48;;;;;;;7.18;3.67;;;;;;;23.98;54.33;101379.00;5074642;28;20425;-67
2022/07/31 11:41:17;;;;;;;5.60;3.50;;;;;;;24.09;54.00;101377.94;5074349;28;20044;-67
2022/07/31 11:43:50;;;;;;;8.25;3.50;;;;;;;24.44;53.52;101369.75;5085675;28;20052;-68
2022/07/31 11:46:23;;;;;;;5.40;3.38;;;;;;;24.56;52.89;101368.63;5082128;28;20403;-69
2022/07/31 11:48:51;;;;;;;6.10;3.53;;;;;;;25.21;51.22;101365.78;5081779;28;20510;-69
2022/07/31 11:51:20;;;;;;;5.43;3.50;;;;;;;25.11;51.30;101360.91;5085452;28;20431;-74
2022/07/31 11:53:49;;;;;;;7.57;3.55;;;;;;;25.08;51.05;101367.34;5085035;28;20044;-73
2022/07/31 11:56:24;;;;;;;7.80;3.10;;;;;;;25.00;51.56;101355.22;5067082;28;20060;-73
2022/07/31 11:58:56;;;;;;;5.00;3.53;;;;;;;25.42;49.94;101351.78;5058115;28;20044;-73